Home > Products > Valid Products > TAF

000
FTUS41 KALY 241700
TAFGFL
TAF
KGFL 241723Z 2418/2518 34018G27KT P6SM SKC
     FM250000 33010KT P6SM SKC
     FM250300 VRB02KT P6SM SKC
     FM251500 12005KT P6SM SCT250=



000
FTUS41 KALY 241700
TAFPOU
TAF
KPOU 241723Z 2418/2518 32017G26KT P6SM SKC
     FM250000 31009KT P6SM SKC
     FM250400 VRB02KT P6SM SKC
     FM251600 17004KT P6SM SCT250=



000
FTUS41 KALY 241700
TAFALB
TAF
KALB 241723Z 2418/2518 33020G30KT P6SM SKC
     FM250000 32013G21KT P6SM SKC
     FM250400 VRB02KT P6SM SKC
     FM251500 13005KT P6SM SCT250=



000
FTUS41 KALY 241100
TAFALB
TAF
KALB 241136Z 2412/2512 31015G28KT P6SM SKC
     FM241600 32017G32KT P6SM SCT250
     FM250000 32007KT P6SM SCT200=



000
FTUS41 KALY 241100
TAFGFL
TAF
KGFL 241136Z 2412/2512 34016G27KT P6SM SKC
     FM241600 35017G29KT P6SM SCT250
     FM250000 34004KT P6SM SCT200=



000
FTUS41 KALY 241100
TAFPOU
TAF
KPOU 241136Z 2412/2512 31014G24KT P6SM SKC
     FM250000 32004KT P6SM SCT250=



000
FTUS41 KALY 240500
TAFGFL
TAF
KGFL 240520Z 2406/2506 34010G16KT P6SM SKC
     FM241200 34014G29KT P6SM SKC
     FM242100 35017G29KT P6SM SCT250
     FM250000 34004KT P6SM SCT200=



000
FTUS41 KALY 240500
TAFPOU
TAF
KPOU 240520Z 2406/2506 30010G16KT P6SM SKC
     FM241300 32015G27KT P6SM SKC
     FM250000 32004KT P6SM SCT250=



000
FTUS41 KALY 240500
TAFALB
TAF
KALB 240520Z 2406/2506 30010G16KT P6SM SKC
     FM241300 32015G30KT P6SM SKC
     FM242100 32017G32KT P6SM SCT250
     FM250000 32007KT P6SM SCT200=



000
FTUS41 KALY 232300 CCA
TAFGFL
TAF COR
KGFL 232334Z 2400/2424 32011G20KT P6SM OVC045
     FM240100 32010G16KT P6SM SCT050
     FM241400 34014G25KT P6SM SKC=



000
FTUS41 KALY 232300
TAFALB
TAF
KALB 232333Z 2400/2424 32013G22KT P6SM BKN045
     FM240100 31014G24KT P6SM SCT050
     FM241400 32020G30KT P6SM SKC=



000
FTUS41 KALY 232300
TAFGFL
TAF
KGFL 232333Z 2400/2424 32011KT P6SM OVC045
     FM240100 32010G16KT P6SM SCT050
     FM241400 34014G25KT P6SM SKC=



000
FTUS41 KALY 232300
TAFPOU
TAF
KPOU 232333Z 2400/2424 32013G24KT P6SM BKN045
     FM240100 30010G16KT P6SM SCT050
     FM241400 32015G27KT P6SM SKC=



000
FTUS41 KALY 231700
TAFALB
TAF
KALB 231723Z 2318/2418 31014G26KT P6SM OVC045
     FM232000 32020G32KT P6SM BKN045
     FM240100 31014G24KT P6SM SCT050
     FM241400 32020G30KT P6SM SKC=



000
FTUS41 KALY 231700
TAFPOU
TAF
KPOU 231723Z 2318/2418 32012G20KT P6SM VCSH OVC040
      TEMPO 2318/2319 6SM -SHRA BR OVC035
     FM232000 32015G27KT P6SM BKN045
     FM240100 30010G16KT P6SM SCT050
     FM241400 32015G27KT P6SM SKC=



000
FTUS41 KALY 231700
TAFGFL
TAF
KGFL 231723Z 2318/2418 32014G25KT P6SM OVC045
     FM240100 32010G16KT P6SM SCT050
     FM241400 34014G25KT P6SM SKC=



000
FTUS41 KALY 231600 AAB
TAFALB
TAF AMD
KALB 231620Z 2316/2412 30011G18KT P6SM VCSH SCT030 OVC045
     FM231800 32015G25KT P6SM SCT030 OVC045
     FM232000 32020G30KT P6SM BKN035 OVC045
     FM240000 31015G25KT P6SM SCT030 BKN070
     FM240500 31010G20KT P6SM SCT045=



000
FTUS41 KALY 231600 AAB
TAFGFL
TAF AMD
KGFL 231618Z 2316/2412 34012G18KT P6SM VCSH SCT030 OVC040
     FM240000 32012KT P6SM SCT030 BKN070
     FM240500 32010KT P6SM SCT030=



000
FTUS41 KALY 231400 AAA
TAFPOU
TAF AMD
KPOU 231404Z 2314/2412 31010KT P6SM VCSH OVC035
      TEMPO 2314/2317 4SM -SHRA BR BKN025 OVC030
     FM231700 32015G25KT P6SM VCSH BKN035 OVC050
     FM240000 30012KT P6SM SCT040
     FM240500 30010KT P6SM SKC=



000
FTUS41 KALY 231400 AAA
TAFALB
TAF AMD
KALB 231403Z 2314/2412 30010G17KT P6SM -SHRA SCT015 BKN025 OVC035
      TEMPO 2314/2317 4SM -RA BR BKN015 OVC025
     FM231700 32015G25KT P6SM -SHRA BKN025 OVC045
     FM232000 32020G30KT P6SM VCSH BKN035 OVC045
     FM240000 31015G25KT P6SM SCT030 BKN070
     FM240500 31010G20KT P6SM SCT045=



000
FTUS41 KALY 231400 AAA
TAFGFL
TAF AMD
KGFL 231401Z 2314/2412 35010KT 6SM -SHRA OVC025
     FM231600 34012G20KT P6SM -SHRA BKN030 OVC040
     FM240000 32012KT P6SM SCT030 BKN070
     FM240500 32010KT P6SM SCT030=



000
FTUS41 KALY 231100
TAFPOU
TAF
KPOU 231138Z 2312/2412 30005KT P6SM SCT025 OVC030
     FM231300 31012G22KT P6SM VCSH BKN030 OVC040
      TEMPO 2313/2315 4SM -SHRA BR BKN025 OVC030
     FM231500 32015G30KT P6SM VCSH BKN035 OVC050
     FM240000 30012KT P6SM SCT040
     FM240500 30010KT P6SM SKC=



000
FTUS41 KALY 231100
TAFGFL
TAF
KGFL 231138Z 2312/2412 28005KT P6SM OVC029
     FM231300 30010G22KT 6SM -SHRA BKN025 OVC040
     FM231500 34012G25KT P6SM -SHRA BKN030 OVC040
     FM240000 32012KT P6SM SCT030 BKN070
     FM240500 32010KT P6SM SCT030=



000
FTUS41 KALY 231100
TAFALB
TAF
KALB 231138Z 2312/2412 30010G22KT P6SM -SHRA BKN020 OVC040
     FM231500 32016G28KT P6SM -SHRA BKN030 OVC045
     FM231800 32020G30KT P6SM VCSH BKN035 OVC045
     FM240000 31015G25KT P6SM SCT030 BKN070
     FM240500 31010G20KT P6SM SCT045=



000
FTUS41 KALY 230900 AAB
TAFPOU
TAF AMD
KPOU 230947Z 2310/2406 VRB05KT P6SM VCSH BKN020 OVC045
      TEMPO 2310/2312 5SM -SHRA BR
     FM231200 31012G22KT P6SM VCSH BKN030 OVC040
      TEMPO 2312/2315 -SHRA BKN025
     FM231500 32015G30KT P6SM VCSH BKN035 OVC050
     FM240000 30012KT P6SM SCT045=



000
FTUS41 KALY 230800 AAA
TAFPOU
TAF AMD
KPOU 230820Z 2308/2406 VRB05KT P6SM VCSH BKN020 OVC045
     FM231200 31012G22KT P6SM VCSH BKN030 OVC040
      TEMPO 2312/2315 -SHRA BKN025
     FM231500 32015G30KT P6SM VCSH BKN035 OVC050
     FM240000 30012KT P6SM SCT045=



000
FTUS41 KALY 230500
TAFGFL
TAF
KGFL 230520Z 2306/2406 22008KT P6SM VCSH SCT020 OVC040
      TEMPO 2308/2312 BKN020
     FM231200 34010G22KT 6SM -SHRA BKN020 OVC040
     FM231500 34012G25KT P6SM -SHRA BKN030 OVC040
     FM240000 32011KT P6SM SCT030 BKN070=



000
FTUS41 KALY 230500
TAFPOU
TAF
KPOU 230520Z 2306/2406 VRB05KT P6SM VCSH SCT020 OVC045
     FM231200 31012G22KT P6SM VCSH BKN030 OVC040
      TEMPO 2312/2315 -SHRA BKN025
     FM231500 32015G30KT P6SM VCSH BKN035 OVC050
     FM240000 30012KT P6SM SCT045=



000
FTUS41 KALY 230500
TAFALB
TAF
KALB 230520Z 2306/2406 29010G20KT P6SM VCSH SCT020 OVC040
      TEMPO 2306/2310 BKN020
     FM231000 30010G22KT 6SM -SHRA BKN020 OVC040
     FM231500 34015G30KT P6SM -SHRA BKN035 OVC045
     FM240000 32015KT P6SM SCT030 BKN070=



000
FTUS41 KALY 230000 RRA
TAFPOU
TAF
KPOU 230026Z 2300/2324 22006KT P6SM VCSH OVC045
     FM230300 29006KT P6SM VCSH OVC045
     FM231500 31016G26KT P6SM VCSH BKN050=



000
FTUS41 KALY 230000 RRA
TAFGFL
TAF
KGFL 230025Z 2300/2324 20007KT P6SM VCSH OVC050
     FM230500 29008KT P6SM VCSH OVC035
     FM231500 34015G26KT P6SM VCSH BKN040=



000
FTUS41 KALY 230000 RRA
TAFALB
TAF
KALB 230025Z 2300/2324 27009KT P6SM VCSH OVC035
     FM230400 29012G18KT P6SM VCSH OVC035
     FM231500 31020G32KT P6SM VCSH BKN040=



000
FTUS41 KALY 221700
TAFPOU
TAF
KPOU 221729Z 2218/2318 18010G15KT P6SM VCSH SCT060 OVC120
      TEMPO 2218/2222 6SM -SHRA OVC060
     FM222200 20009KT 6SM -SHRA BR OVC045
     FM230300 29006KT P6SM VCSH OVC045
     FM231500 31016G26KT P6SM VCSH BKN050=



000
FTUS41 KALY 221700
TAFALB
TAF
KALB 221729Z 2218/2318 18008G14KT P6SM -SHRA SCT060 OVC100
      TEMPO 2218/2222 5SM -SHRA OVC060
     FM222200 22009KT 5SM -SHRA BR OVC035
     FM230100 27009KT P6SM VCSH OVC035
     FM230400 29012G18KT P6SM VCSH OVC035
     FM231500 31020G32KT P6SM VCSH BKN040=



000
FTUS41 KALY 221700
TAFGFL
TAF
KGFL 221729Z 2218/2318 20008KT P6SM -SHRA SCT050 OVC100
      TEMPO 2218/2222 5SM -SHRA OVC050
     FM222200 22007KT 5SM -SHRA BR OVC030
     FM230100 25008KT P6SM VCSH OVC030
     FM230500 29008KT P6SM VCSH OVC035
     FM231500 34015G26KT P6SM VCSH BKN040=



000
FTUS41 KALY 221300 AAA
TAFALB
TAF AMD
KALB 221315Z 2213/2312 18012G18KT P6SM BKN100 OVC150
     FM221500 19007KT P6SM VCSH SCT050 OVC070
     FM221800 22009KT 5SM -SHRA BR SCT025 BKN050
     FM230000 27007KT 6SM BR VCSH BKN025 OVC045
     FM230300 29012KT P6SM VCSH BKN025=



000
FTUS41 KALY 221100
TAFALB
TAF
KALB 221123Z 2212/2312 18008KT P6SM BKN100 OVC150
     FM221500 19007KT P6SM VCSH SCT050 OVC070
     FM221800 22009KT 5SM -SHRA BR SCT025 BKN050
     FM230000 27007KT 6SM BR VCSH BKN025 OVC045
     FM230300 29012KT P6SM VCSH BKN025=



000
FTUS41 KALY 221100
TAFPOU
TAF
KPOU 221123Z 2212/2312 21007KT P6SM BKN100 OVC150
     FM222000 22007KT P6SM VCSH OVC050
      TEMPO 2220/2224 6SM -SHRA BR BKN025 OVC045
     FM230000 30007KT P6SM VCSH BKN025 BKN040=



000
FTUS41 KALY 221100
TAFGFL
TAF
KGFL 221123Z 2212/2312 22007KT P6SM VCSH SCT070 OVC120
     FM221800 22009KT 4SM -SHRA BR SCT025 BKN045
     FM230000 27007KT 6SM BR VCSH BKN025 OVC045
     FM230300 29006KT P6SM VCSH BKN025
     FM230600 33007KT P6SM VCSH BKN025=



000
FTUS41 KALY 220500
TAFPOU
TAF
KPOU 220525Z 2206/2306 15005KT P6SM BKN150 BKN200
     FM221500 21007KT P6SM BKN100 OVC150
     FM222000 22007KT P6SM VCSH OVC050 PROB30 2220/2224 6SM -SHRA BR
      BKN040
     FM230000 30007KT P6SM VCSH BKN025 BKN040=



000
FTUS41 KALY 220500
TAFGFL
TAF
KGFL 220525Z 2206/2306 18003KT P6SM BKN100 OVC150
     FM221500 20007KT P6SM VCSH SCT050 OVC070 PROB30 2215/2218 -SHRA
      BKN045
     FM221800 22009KT 4SM -SHRA BR SCT025 BKN045
     FM230000 27007KT 6SM BR VCSH BKN025 OVC045
     FM230300 29006KT P6SM VCSH BKN025=



000
FTUS41 KALY 220500
TAFALB
TAF
KALB 220525Z 2206/2306 16008KT P6SM BKN100 OVC150
     FM221500 19007KT P6SM VCSH SCT050 OVC070 PROB30 2215/2218 -SHRA
      BKN045
     FM221800 22009KT 6SM -SHRA BR SCT025 BKN050
     FM230000 27007KT 6SM BR VCSH BKN025 OVC045
     FM230300 29012KT P6SM VCSH BKN025=



000
FTUS41 KALY 212300
TAFALB
TAF
KALB 212331Z 2200/2224 18010KT P6SM BKN150 BKN250
     FM220300 17005KT P6SM BKN100 OVC150
     FM221500 18010KT P6SM SCT060 OVC080
     FM221900 18010KT P6SM VCSH OVC050=



000
FTUS41 KALY 212300
TAFGFL
TAF
KGFL 212331Z 2200/2224 19009KT P6SM BKN150 BKN250
     FM220100 18003KT P6SM BKN100 OVC150
     FM221500 20007KT P6SM VCSH SCT050 OVC070=



000
FTUS41 KALY 212300
TAFPOU
TAF
KPOU 212331Z 2200/2224 21006KT P6SM SCT150 SCT250
     FM220100 VRB02KT P6SM BKN130 BKN200
     FM221500 21006KT P6SM SCT090 OVC130
     FM221900 19007KT P6SM VCSH OVC050=



    US Dept of Commerce
    National Oceanic and Atmospheric Administration
    National Weather Service
    1325 East West Highway
    Silver Spring, MD 20910
    Page Author: NWS Internet Services Team
Disclaimer
Information Quality
Credits
Glossary
Privacy Policy
Freedom of Information Act (FOIA)
About Us
Career Opportunities